Time;durP1;ratioP1;P1;durP2;ratioP2;P2;SDS_P1;SDS_P2;PMS_P1;PMS_P2;Temp;Humidity;BMP_temperature;BMP_pressure;BME280_temperature;BME280_humidity;BME280_pressure;Samples;Min_cycle;Max_cycle;Signal;HPM_P1;HPM_P2
2021/05/29 00:01:14;;;;;;;7.43;6.15;;;9.80;99.90;;;;;;4981774;28;20536;-82
2021/05/29 00:03:43;;;;;;;8.85;5.07;;;9.80;99.90;;;;;;4975523;28;20261;-82
2021/05/29 00:06:09;;;;;;;8.18;7.22;;;9.80;99.90;;;;;;4976122;28;20283;-82
2021/05/29 00:08:36;;;;;;;6.25;5.65;;;9.70;99.90;;;;;;4989493;28;20183;-82
2021/05/29 00:11:03;;;;;;;7.75;5.75;;;9.70;99.90;;;;;;4993809;28;20237;-82
2021/05/29 00:13:31;;;;;;;11.88;7.15;;;9.60;99.90;;;;;;4986383;28;20237;-82
2021/05/29 00:15:57;;;;;;;7.15;6.45;;;9.70;99.90;;;;;;4975942;28;20191;-82
2021/05/29 00:18:24;;;;;;;6.82;6.10;;;9.60;99.90;;;;;;4993981;28;20225;-82
2021/05/29 00:20:52;;;;;;;10.98;7.78;;;9.70;99.90;;;;;;4994293;28;20201;-82
2021/05/29 00:23:22;;;;;;;9.18;6.70;;;9.70;99.90;;;;;;4992880;28;20642;-82
2021/05/29 00:25:48;;;;;;;9.35;6.70;;;9.70;99.90;;;;;;4989510;28;20189;-82
2021/05/29 00:28:15;;;;;;;6.13;5.50;;;9.70;99.90;;;;;;4974748;28;20190;-82
2021/05/29 00:30:43;;;;;;;9.00;5.65;;;9.60;99.90;;;;;;4977871;28;20189;-82
2021/05/29 00:33:09;;;;;;;9.25;6.70;;;9.60;99.90;;;;;;4992472;28;20650;-82
2021/05/29 00:35:35;;;;;;;9.65;5.68;;;9.50;99.90;;;;;;4986911;28;20197;-82
2021/05/29 00:38:03;;;;;;;9.10;6.63;;;9.40;99.90;;;;;;4975010;28;20670;-82
2021/05/29 00:40:29;;;;;;;9.70;6.68;;;9.40;99.90;;;;;;4975843;28;20187;-82
2021/05/29 00:42:56;;;;;;;9.45;7.03;;;9.30;99.90;;;;;;4976654;28;20210;-82
2021/05/29 00:45:22;;;;;;;9.40;6.88;;;9.20;99.90;;;;;;4991280;28;20186;-81
2021/05/29 00:47:49;;;;;;;7.78;6.97;;;9.10;99.90;;;;;;4992817;28;20201;-81
2021/05/29 00:50:16;;;;;;;9.70;7.22;;;9.10;99.90;;;;;;4988440;28;20208;-80
2021/05/29 00:52:43;;;;;;;9.27;8.38;;;9.10;99.90;;;;;;4982914;28;20647;-81
2021/05/29 00:55:12;;;;;;;10.90;7.22;;;9.10;99.90;;;;;;4984165;28;20182;-81
2021/05/29 00:57:40;;;;;;;12.07;7.18;;;9.10;99.90;;;;;;4990772;28;20192;-81
2021/05/29 01:00:08;;;;;;;14.73;7.63;;;9.00;99.90;;;;;;4974608;28;20209;-80
2021/05/29 01:02:35;;;;;;;9.30;8.00;;;9.10;99.90;;;;;;4977573;28;20670;-81
2021/05/29 01:05:01;;;;;;;9.57;8.68;;;9.10;99.90;;;;;;4988803;28;20186;-80
2021/05/29 01:07:27;;;;;;;11.00;7.78;;;9.00;99.90;;;;;;4992557;28;20504;-81
2021/05/29 01:09:54;;;;;;;9.18;8.05;;;9.00;99.90;;;;;;4992350;28;20221;-81
2021/05/29 01:12:21;;;;;;;9.02;7.18;;;8.90;99.90;;;;;;4985896;28;20183;-81
2021/05/29 01:14:52;;;;;;;9.80;7.97;;;8.80;99.90;;;;;;4976382;28;20187;-81
2021/05/29 01:17:19;;;;;;;9.90;7.07;;;8.80;99.90;;;;;;4976436;28;20186;-81
2021/05/29 01:19:45;;;;;;;7.85;6.22;;;8.70;99.90;;;;;;4984425;28;20221;-81
2021/05/29 01:22:12;;;;;;;9.25;7.40;;;8.60;99.90;;;;;;4989051;28;20183;-81
2021/05/29 01:24:40;;;;;;;10.52;6.95;;;8.60;99.90;;;;;;4976160;28;20191;-81
2021/05/29 01:27:07;;;;;;;10.60;8.27;;;8.50;99.90;;;;;;4983229;28;20671;-82
2021/05/29 01:29:34;;;;;;;9.07;7.75;;;8.40;99.90;;;;;;4984360;28;20242;-81
2021/05/29 01:32:03;;;;;;;10.90;7.20;;;8.30;99.90;;;;;;4983902;28;20195;-81
2021/05/29 01:34:31;;;;;;;8.70;7.22;;;8.30;99.90;;;;;;4993922;28;20182;-82
2021/05/29 01:37:00;;;;;;;8.07;6.90;;;8.20;99.90;;;;;;4997021;28;20676;-81
2021/05/29 01:39:27;;;;;;;9.40;7.35;;;8.10;99.90;;;;;;5010631;28;20558;-81
2021/05/29 01:41:54;;;;;;;10.43;8.77;;;8.00;99.90;;;;;;5001392;28;20183;-81
2021/05/29 01:44:22;;;;;;;9.48;7.85;;;8.00;99.90;;;;;;4980200;28;20748;-81
2021/05/29 01:46:49;;;;;;;8.93;7.05;;;7.90;99.90;;;;;;4995517;28;20186;-81
2021/05/29 01:49:16;;;;;;;14.45;10.63;;;7.90;99.90;;;;;;4980459;28;20194;-81
2021/05/29 01:51:42;;;;;;;9.98;7.05;;;7.80;99.90;;;;;;4994507;28;20182;-81
2021/05/29 01:54:08;;;;;;;9.15;7.63;;;7.80;99.90;;;;;;4999805;28;20542;-82
2021/05/29 01:56:36;;;;;;;7.65;6.90;;;7.80;99.90;;;;;;4985622;28;20616;-81
2021/05/29 01:59:02;;;;;;;9.70;7.47;;;7.70;99.90;;;;;;4989843;28;20224;-81
2021/05/29 02:01:28;;;;;;;9.95;8.00;;;7.70;99.90;;;;;;4990661;28;20642;-82
2021/05/29 02:03:54;;;;;;;9.80;7.20;;;7.60;99.90;;;;;;5000032;28;20597;-81
2021/05/29 02:06:21;;;;;;;9.10;8.05;;;7.50;99.90;;;;;;4989792;28;20264;-81
2021/05/29 02:08:47;;;;;;;11.32;8.20;;;7.60;99.90;;;;;;4990661;28;20672;-81
2021/05/29 02:11:13;;;;;;;12.45;11.00;;;7.50;99.90;;;;;;4997572;28;20677;-81
2021/05/29 02:13:42;;;;;;;10.18;8.68;;;7.50;99.90;;;;;;5002811;28;20277;-81
2021/05/29 02:16:10;;;;;;;12.55;9.68;;;7.50;99.90;;;;;;4987783;28;20639;-81
2021/05/29 02:18:36;;;;;;;11.55;10.35;;;7.50;99.90;;;;;;4983859;28;20246;-81
2021/05/29 02:21:05;;;;;;;13.43;11.30;;;7.50;99.90;;;;;;4992046;28;20186;-81
2021/05/29 02:23:33;;;;;;;11.50;10.30;;;7.40;99.90;;;;;;4995122;28;20276;-81
2021/05/29 02:26:02;;;;;;;12.43;9.70;;;7.50;99.90;;;;;;4992928;28;20253;-81
2021/05/29 02:28:29;;;;;;;11.27;9.85;;;7.40;99.90;;;;;;4982522;28;20186;-81
2021/05/29 02:30:56;;;;;;;11.20;9.10;;;7.40;99.90;;;;;;4985960;28;20181;-81
2021/05/29 02:33:24;;;;;;;15.00;9.82;;;7.40;99.90;;;;;;4984137;28;20208;-81
2021/05/29 02:35:51;;;;;;;11.40;10.10;;;7.40;99.90;;;;;;4982439;28;20261;-81
2021/05/29 02:38:18;;;;;;;11.75;10.50;;;7.40;99.90;;;;;;4989884;28;20260;-82
2021/05/29 02:40:44;;;;;;;15.95;10.38;;;7.40;99.90;;;;;;4989741;28;20209;-81
2021/05/29 02:43:11;;;;;;;14.85;10.40;;;7.40;99.90;;;;;;4993758;28;20297;-81
2021/05/29 02:45:39;;;;;;;12.30;10.70;;;7.40;99.90;;;;;;4984868;28;20190;-81
2021/05/29 02:48:07;;;;;;;13.93;10.68;;;7.40;99.90;;;;;;4981085;28;20186;-81
2021/05/29 02:50:34;;;;;;;14.80;11.77;;;7.40;99.90;;;;;;4995893;28;20737;-81
2021/05/29 02:53:00;;;;;;;11.55;9.75;;;7.40;99.90;;;;;;4980503;28;20191;-81
2021/05/29 02:55:27;;;;;;;16.55;10.80;;;7.40;99.90;;;;;;4994148;28;20233;-81
2021/05/29 02:57:55;;;;;;;20.25;11.68;;;7.40;99.90;;;;;;4983010;28;20582;-81
2021/05/29 03:00:23;;;;;;;11.80;10.60;;;7.30;99.90;;;;;;4980163;28;20210;-81
2021/05/29 03:02:49;;;;;;;12.90;10.52;;;7.30;99.90;;;;;;4978537;28;20194;-81
2021/05/29 03:05:17;;;;;;;13.00;10.13;;;7.30;99.90;;;;;;4994415;28;20184;-81
2021/05/29 03:07:45;;;;;;;13.40;11.65;;;7.20;99.90;;;;;;4979968;28;20277;-81
2021/05/29 03:10:13;;;;;;;13.43;12.05;;;7.20;99.90;;;;;;4981501;28;20190;-81
2021/05/29 03:12:40;;;;;;;10.88;9.73;;;7.10;99.90;;;;;;4976948;28;20290;-81
2021/05/29 03:15:08;;;;;;;11.93;10.50;;;7.10;99.90;;;;;;4982276;28;20670;-81
2021/05/29 03:17:35;;;;;;;14.98;12.20;;;7.10;99.90;;;;;;4976709;28;20190;-80
2021/05/29 03:20:01;;;;;;;16.48;12.98;;;7.00;99.90;;;;;;4982872;28;20226;-80
2021/05/29 03:22:28;;;;;;;12.00;10.70;;;7.00;99.90;;;;;;4976317;28;20187;-80
2021/05/29 03:24:54;;;;;;;12.60;11.10;;;7.00;99.90;;;;;;4986833;28;20236;-80
2021/05/29 03:27:21;;;;;;;15.85;12.43;;;7.00;99.90;;;;;;4994934;28;20205;-86
2021/05/29 03:29:47;;;;;;;16.67;13.93;;;6.90;99.90;;;;;;4987010;28;20194;-87
2021/05/29 03:32:14;;;;;;;13.80;11.43;;;7.40;99.90;;;;;;4984925;28;20516;-86
2021/05/29 03:34:42;;;;;;;14.18;12.27;;;6.90;99.90;;;;;;4997917;28;20265;-87
2021/05/29 03:37:09;;;;;;;17.50;12.85;;;6.90;99.90;;;;;;4990774;28;20193;-86
2021/05/29 03:39:36;;;;;;;15.55;12.30;;;6.90;99.90;;;;;;5001450;28;20253;-87
2021/05/29 03:42:03;;;;;;;14.65;12.82;;;6.90;99.90;;;;;;4997061;28;20187;-86
2021/05/29 03:44:29;;;;;;;15.00;12.65;;;6.90;99.90;;;;;;4982985;28;20723;-86
2021/05/29 03:46:56;;;;;;;18.92;13.52;;;6.80;99.90;;;;;;4991684;28;20667;-86
2021/05/29 03:49:22;;;;;;;17.05;13.20;;;6.90;99.90;;;;;;4982081;28;20187;-86
2021/05/29 03:51:49;;;;;;;16.10;11.70;;;6.90;99.90;;;;;;4983398;28;20190;-86
2021/05/29 03:54:15;;;;;;;15.35;13.02;;;6.90;99.90;;;;;;4997364;28;20621;-86
2021/05/29 03:56:42;;;;;;;18.40;13.02;;;7.00;99.90;;;;;;4997117;28;20192;-87
2021/05/29 03:59:13;;;;;;;16.98;13.02;;;7.00;99.90;;;;;;4985862;28;20214;-86
2021/05/29 04:01:40;;;;;;;15.75;12.70;;;6.90;99.90;;;;;;4980837;28;20190;-86
2021/05/29 04:04:07;;;;;;;13.82;11.52;;;7.00;99.90;;;;;;4992233;28;20258;-86
2021/05/29 04:06:34;;;;;;;15.07;12.48;;;6.90;99.90;;;;;;4995329;28;20194;-86
2021/05/29 04:09:01;;;;;;;13.95;12.02;;;6.80;99.90;;;;;;4990560;28;20187;-88
2021/05/29 04:11:27;;;;;;;16.33;14.63;;;8.90;99.90;;;;;;4978022;28;20198;-88
2021/05/29 04:13:54;;;;;;;16.52;13.80;;;7.00;99.90;;;;;;4980297;28;20193;-87
2021/05/29 04:16:21;;;;;;;16.70;13.02;;;7.60;99.90;;;;;;4989169;28;20222;-86
2021/05/29 04:18:48;;;;;;;14.52;12.93;;;7.10;99.90;;;;;;4990434;28;20285;-86
2021/05/29 04:21:14;;;;;;;16.45;13.75;;;7.30;99.90;;;;;;4977006;28;20198;-86
2021/05/29 04:23:41;;;;;;;17.70;14.30;;;7.20;99.90;;;;;;4980903;28;20187;-86
2021/05/29 04:26:08;;;;;;;25.98;17.67;;;7.30;99.90;;;;;;4977084;28;20333;-86
2021/05/29 04:28:35;;;;;;;22.02;16.20;;;7.50;99.90;;;;;;4978371;28;20218;-86
2021/05/29 04:31:03;;;;;;;18.40;15.50;;;7.80;99.90;;;;;;4977365;28;20190;-84
2021/05/29 04:33:29;;;;;;;19.58;16.27;;;7.80;99.90;;;;;;4993078;28;20594;-82
2021/05/29 04:35:56;;;;;;;18.40;16.50;;;8.00;99.90;;;;;;4990049;28;20179;-82
2021/05/29 04:38:22;;;;;;;19.58;16.85;;;8.00;99.90;;;;;;4988964;28;20217;-82
2021/05/29 04:40:49;;;;;;;21.63;16.70;;;8.20;99.90;;;;;;4981600;28;20554;-81
2021/05/29 04:43:15;;;;;;;19.15;17.08;;;8.40;99.90;;;;;;4975470;28;20223;-82
2021/05/29 04:45:42;;;;;;;20.30;15.68;;;8.50;99.90;;;;;;4986921;28;20186;-83
2021/05/29 04:48:11;;;;;;;22.88;16.38;;;8.50;99.90;;;;;;4999766;28;20253;-82
2021/05/29 04:53:18;;;;;;;23.60;18.65;;;8.70;99.90;;;;;;4984010;28;20249;-82
2021/05/29 04:55:45;;;;;;;23.15;17.83;;;8.80;99.90;;;;;;4982124;28;20191;-81
2021/05/29 04:58:11;;;;;;;19.95;16.00;;;8.90;99.90;;;;;;4989041;28;20182;-81
2021/05/29 05:00:37;;;;;;;20.60;17.63;;;9.00;99.90;;;;;;4980187;28;20241;-81
2021/05/29 05:03:04;;;;;;;22.20;16.00;;;9.10;99.90;;;;;;4982650;28;20198;-81
2021/05/29 05:05:31;;;;;;;22.65;16.73;;;9.20;99.90;;;;;;4984552;28;20190;-82
2021/05/29 05:07:58;;;;;;;19.10;14.65;;;9.20;99.90;;;;;;4986690;28;20190;-82
2021/05/29 05:10:24;;;;;;;20.38;15.27;;;9.30;99.90;;;;;;4974492;28;20195;-83
2021/05/29 05:12:51;;;;;;;20.45;15.23;;;9.40;99.90;;;;;;4990700;28;20523;-83
2021/05/29 05:15:17;;;;;;;18.55;16.00;;;9.40;99.90;;;;;;4993770;28;20193;-83
2021/05/29 05:17:44;;;;;;;25.23;15.80;;;9.50;99.90;;;;;;4993515;28;20256;-83
2021/05/29 05:20:12;;;;;;;17.27;15.15;;;9.60;99.90;;;;;;4975260;28;20686;-83
2021/05/29 05:22:39;;;;;;;22.02;15.95;;;9.60;99.90;;;;;;4980087;28;20187;-82
2021/05/29 05:25:07;;;;;;;18.80;13.82;;;9.60;99.90;;;;;;4974972;28;20210;-82
2021/05/29 05:27:34;;;;;;;18.50;16.58;;;9.70;99.90;;;;;;4979360;28;20187;-82
2021/05/29 05:30:00;;;;;;;17.30;14.60;;;9.70;99.90;;;;;;4974300;28;20562;-82
2021/05/29 05:32:27;;;;;;;19.40;14.48;;;9.80;99.90;;;;;;4990643;28;20218;-82
2021/05/29 05:34:53;;;;;;;21.80;15.13;;;9.90;99.90;;;;;;4993763;28;20202;-82
2021/05/29 05:37:19;;;;;;;21.33;15.73;;;10.00;99.90;;;;;;4992386;28;20191;-82
2021/05/29 05:39:46;;;;;;;20.20;13.90;;;10.10;99.90;;;;;;4991837;28;20214;-82
2021/05/29 05:42:13;;;;;;;17.77;13.68;;;10.20;99.90;;;;;;4980635;28;20183;-82
2021/05/29 05:44:39;;;;;;;18.02;13.95;;;10.30;99.90;;;;;;4974723;28;20228;-83
2021/05/29 05:47:05;;;;;;;16.88;13.20;;;10.50;99.90;;;;;;4975018;28;20253;-82
2021/05/29 05:49:32;;;;;;;20.38;15.25;;;10.60;99.90;;;;;;4977539;28;20686;-82
2021/05/29 05:51:58;;;;;;;17.52;13.90;;;10.60;99.90;;;;;;4986174;28;20192;-82
2021/05/29 05:54:25;;;;;;;14.48;12.68;;;10.60;99.90;;;;;;4991929;28;20183;-82
2021/05/29 05:56:53;;;;;;;14.73;12.85;;;10.80;99.90;;;;;;4986774;28;20189;-82
2021/05/29 05:59:19;;;;;;;17.85;12.73;;;10.80;99.90;;;;;;4973785;28;20221;-82
2021/05/29 06:01:45;;;;;;;19.73;10.95;;;10.90;99.90;;;;;;4974448;28;20249;-82
2021/05/29 06:04:12;;;;;;;12.98;10.30;;;11.00;99.90;;;;;;4974171;28;20191;-82
2021/05/29 06:06:38;;;;;;;11.05;9.35;;;11.00;99.90;;;;;;4981602;28;20232;-82
2021/05/29 06:09:05;;;;;;;17.42;12.27;;;11.10;99.90;;;;;;4992068;28;20277;-82
2021/05/29 06:11:32;;;;;;;14.10;10.60;;;11.20;99.90;;;;;;4993574;28;20273;-82
2021/05/29 06:19:27;;;;;;;11.43;10.27;;;11.40;99.90;;;;;;4978487;28;20243;-81
2021/05/29 06:21:56;;;;;;;12.73;8.88;;;11.50;99.90;;;;;;4989234;28;20186;-82
2021/05/29 06:24:50;;;;;;;13.10;8.90;;;11.60;99.90;;;;;;4998539;28;20204;-80
2021/05/29 06:27:16;;;;;;;13.68;9.18;;;11.80;99.90;;;;;;4981129;28;20289;-81
2021/05/29 06:29:43;;;;;;;13.30;10.00;;;11.80;99.90;;;;;;4982656;28;20298;-84
2021/05/29 06:32:13;;;;;;;11.27;7.88;;;11.90;99.90;;;;;;4983708;28;20222;-83
2021/05/29 06:34:40;;;;;;;10.63;9.15;;;12.00;99.90;;;;;;4980961;28;20625;-81
2021/05/29 06:37:06;;;;;;;11.45;9.48;;;12.10;99.90;;;;;;4978011;28;20191;-81
2021/05/29 06:39:33;;;;;;;11.55;9.13;;;12.20;99.90;;;;;;4978347;28;20607;-81
2021/05/29 06:41:59;;;;;;;14.57;9.68;;;12.20;99.90;;;;;;4977936;28;20647;-83
2021/05/29 06:44:26;;;;;;;13.30;9.15;;;12.30;99.90;;;;;;4977085;28;20222;-81
2021/05/29 06:46:53;;;;;;;12.65;8.88;;;12.40;99.90;;;;;;4977129;28;20186;-81
2021/05/29 06:49:21;;;;;;;11.65;9.15;;;12.50;99.90;;;;;;4977054;28;20199;-82
2021/05/29 06:51:54;;;;;;;14.98;8.68;;;12.50;99.90;;;;;;4977066;28;20222;-83
2021/05/29 06:54:23;;;;;;;9.48;8.48;;;12.60;99.90;;;;;;4976784;28;20230;-83
2021/05/29 06:59:34;;;;;;;8.80;7.90;;;12.80;99.90;;;;;;4977878;28;20219;-87
2021/05/29 07:02:01;;;;;;;10.52;8.68;;;12.80;99.90;;;;;;4977800;28;20218;-88
2021/05/29 07:04:27;;;;;;;11.50;8.20;;;12.90;99.90;;;;;;4978080;28;20191;-87
2021/05/29 07:06:54;;;;;;;12.80;9.43;;;13.00;99.90;;;;;;4977762;28;20194;-87
2021/05/29 07:09:22;;;;;;;11.05;8.05;;;13.20;99.90;;;;;;4977323;28;20222;-87
2021/05/29 07:11:49;;;;;;;12.00;8.65;;;13.20;99.90;;;;;;4977862;28;20636;-87
2021/05/29 07:14:15;;;;;;;11.75;9.05;;;13.30;99.90;;;;;;4977187;28;20281;-86
2021/05/29 07:16:43;;;;;;;9.68;7.93;;;13.50;99.90;;;;;;4976967;28;20295;-86
2021/05/29 07:19:11;;;;;;;12.48;9.98;;;13.60;99.90;;;;;;4976821;28;20582;-87
2021/05/29 07:21:38;;;;;;;10.18;7.93;;;13.70;99.90;;;;;;4976693;28;20225;-86
2021/05/29 07:24:06;;;;;;;10.15;8.82;;;13.70;99.90;;;;;;4976405;28;20200;-86
2021/05/29 07:26:33;;;;;;;11.40;9.38;;;13.70;99.90;;;;;;4976716;28;20302;-86
2021/05/29 07:28:59;;;;;;;10.23;8.93;;;14.00;99.90;;;;;;4976884;28;20278;-86
2021/05/29 07:31:27;;;;;;;15.73;8.88;;;14.40;99.90;;;;;;4976665;28;20279;-86
2021/05/29 07:33:55;;;;;;;15.18;9.80;;;13.90;99.90;;;;;;4976582;28;20206;-86
2021/05/29 07:36:23;;;;;;;16.75;11.10;;;13.90;99.90;;;;;;4976383;28;20217;-87
2021/05/29 07:38:50;;;;;;;11.50;8.15;;;14.00;99.90;;;;;;4977233;28;20210;-86
2021/05/29 07:41:17;;;;;;;9.93;8.90;;;14.10;99.90;;;;;;4977018;28;20648;-86
2021/05/29 07:43:43;;;;;;;13.27;9.60;;;14.20;99.90;;;;;;4976235;28;20261;-86
2021/05/29 07:46:10;;;;;;;13.23;10.20;;;14.20;99.90;;;;;;4976775;28;20201;-89
2021/05/29 07:48:39;;;;;;;12.50;10.57;;;14.30;99.90;;;;;;4976570;28;20216;-86
2021/05/29 07:51:06;;;;;;;12.45;9.88;;;14.30;99.90;;;;;;4976553;28;20203;-87
2021/05/29 07:53:35;;;;;;;14.00;12.43;;;14.40;99.90;;;;;;4976673;28;20284;-87
2021/05/29 07:56:07;;;;;;;14.20;12.63;;;14.40;99.90;;;;;;4977230;28;20554;-86
2021/05/29 07:58:34;;;;;;;14.55;11.77;;;14.50;99.90;;;;;;4978590;28;20207;-88
2021/05/29 08:01:00;;;;;;;14.52;12.13;;;14.50;99.90;;;;;;4982635;28;20192;-86
2021/05/29 08:03:29;;;;;;;12.43;11.10;;;14.60;99.90;;;;;;4984712;28;20200;-86
2021/05/29 08:05:55;;;;;;;15.82;14.23;;;14.70;99.90;;;;;;4985197;28;20206;-86
2021/05/29 08:08:23;;;;;;;15.27;12.95;;;14.80;99.90;;;;;;4977761;28;20282;-89
2021/05/29 08:10:52;;;;;;;16.15;13.10;;;14.90;99.90;;;;;;4975999;28;20198;-89
2021/05/29 08:13:20;;;;;;;17.48;13.20;;;14.80;99.90;;;;;;4976280;28;20647;-89
2021/05/29 08:15:47;;;;;;;14.73;13.05;;;14.90;99.90;;;;;;4975504;28;20705;-89
2021/05/29 08:18:16;;;;;;;15.57;11.65;;;15.00;99.90;;;;;;4976476;28;20197;-89
2021/05/29 08:20:43;;;;;;;17.90;13.00;;;14.90;99.90;;;;;;4975803;28;20616;-89
2021/05/29 08:23:12;;;;;;;14.38;12.38;;;14.90;99.90;;;;;;4975990;28;20194;-89
2021/05/29 08:25:38;;;;;;;15.85;11.55;;;14.80;99.90;;;;;;4976180;28;20205;-89
2021/05/29 08:28:06;;;;;;;16.45;13.57;;;15.00;99.90;;;;;;4976506;28;20286;-91
2021/05/29 08:30:33;;;;;;;13.38;11.77;;;15.00;99.90;;;;;;4976319;28;20249;-90
2021/05/29 08:32:59;;;;;;;12.57;10.52;;;15.20;99.90;;;;;;4976935;28;20202;-89
2021/05/29 08:35:26;;;;;;;14.02;10.90;;;15.40;99.90;;;;;;4975568;28;20189;-89
2021/05/29 08:37:52;;;;;;;11.95;10.02;;;15.60;99.90;;;;;;4976484;28;20201;-88
2021/05/29 08:40:20;;;;;;;27.00;10.23;;;15.80;99.90;;;;;;4976223;28;20312;-89
2021/05/29 08:42:48;;;;;;;15.20;9.75;;;15.80;99.90;;;;;;4976710;28;20275;-89
2021/05/29 08:45:17;;;;;;;11.88;9.05;;;15.90;99.90;;;;;;4977167;28;20200;-89
2021/05/29 08:47:45;;;;;;;9.85;7.65;;;16.00;99.90;;;;;;4977186;28;20198;-89
2021/05/29 08:50:13;;;;;;;9.95;8.95;;;16.10;99.90;;;;;;4979595;28;20222;-90
2021/05/29 08:52:40;;;;;;;9.82;7.25;;;16.20;99.90;;;;;;4977097;28;20259;-91
2021/05/29 08:55:09;;;;;;;12.32;7.00;;;16.40;99.90;;;;;;4976302;28;20229;-89
2021/05/29 08:57:35;;;;;;;12.63;7.93;;;16.70;99.90;;;;;;4976083;28;20191;-90
2021/05/29 09:00:02;;;;;;;10.15;8.23;;;17.00;99.90;;;;;;4978388;28;20313;-90
2021/05/29 09:02:30;;;;;;;8.43;6.70;;;16.90;99.90;;;;;;4977203;28;20225;-90
2021/05/29 09:05:03;;;;;;;12.50;8.02;;;17.00;99.90;;;;;;4978532;28;20214;-90
2021/05/29 09:07:30;;;;;;;10.43;8.00;;;16.80;99.90;;;;;;4977088;28;20276;-91
2021/05/29 09:10:19;;;;;;;8.90;7.93;;;16.60;99.90;;;;;;4976246;28;20294;-89
2021/05/29 09:13:11;;;;;;;10.02;7.95;;;16.00;99.90;;;;;;4975380;28;20252;-90
2021/05/29 09:15:53;;;;;;;14.05;8.02;;;15.80;99.90;;;;;;4957809;28;20236;-92
2021/05/29 09:18:30;;;;;;;8.35;7.43;;;16.10;99.90;;;;;;4979841;28;20202;-92
2021/05/29 09:21:17;;;;;;;10.43;8.20;;;16.60;99.90;;;;;;4976188;28;20201;-90
2021/05/29 09:23:45;;;;;;;11.43;6.55;;;17.00;99.90;;;;;;4976381;28;20198;-90
2021/05/29 09:26:12;;;;;;;11.82;8.65;;;17.30;99.90;;;;;;4976550;28;20267;-90
2021/05/29 09:28:42;;;;;;;13.40;8.65;;;17.50;99.90;;;;;;4979958;28;20191;-89
2021/05/29 09:31:13;;;;;;;13.57;10.15;;;17.60;99.90;;;;;;4980232;28;20195;-91
2021/05/29 09:33:41;;;;;;;10.60;9.07;;;17.30;99.90;;;;;;4975775;28;20233;-89
2021/05/29 09:36:10;;;;;;;8.98;8.07;;;17.20;99.90;;;;;;4977486;28;20214;-90
2021/05/29 09:38:39;;;;;;;9.15;7.47;;;17.30;99.90;;;;;;4984147;28;20187;-90
2021/05/29 09:41:20;;;;;;;8.48;6.90;;;17.50;99.90;;;;;;4976834;28;20198;-90
2021/05/29 09:43:58;;;;;;;9.45;8.27;;;17.60;99.90;;;;;;4976233;28;20218;-90
2021/05/29 09:46:25;;;;;;;7.72;6.93;;;17.90;99.90;;;;;;4978441;28;20285;-90
2021/05/29 09:48:57;;;;;;;9.45;6.40;;;18.10;99.90;;;;;;4979316;28;20198;-90
2021/05/29 09:51:26;;;;;;;12.10;7.90;;;18.20;99.90;;;;;;4981918;28;20198;-88
2021/05/29 09:53:53;;;;;;;10.75;7.70;;;18.30;99.90;;;;;;4980894;28;20190;-89
2021/05/29 09:56:27;;;;;;;8.73;7.00;;;18.10;99.90;;;;;;4983082;28;20254;-91
2021/05/29 09:58:59;;;;;;;13.93;7.95;;;18.50;99.90;;;;;;4980673;28;20253;-91
2021/05/29 10:01:47;;;;;;;9.90;8.05;;;18.90;99.90;;;;;;4984547;28;20194;-89
2021/05/29 10:04:36;;;;;;;12.48;7.20;;;19.00;99.90;;;;;;4982407;28;20226;-89
2021/05/29 10:07:05;;;;;;;12.30;7.90;;;18.90;99.90;;;;;;4980574;28;20623;-92
2021/05/29 10:09:32;;;;;;;8.77;7.50;;;18.90;99.90;;;;;;4980087;28;20226;-89
2021/05/29 10:11:59;;;;;;;8.23;6.10;;;18.90;99.90;;;;;;4986162;28;20205;-91
2021/05/29 10:14:27;;;;;;;7.07;6.38;;;19.10;99.90;;;;;;4992732;28;20234;-90
2021/05/29 10:16:54;;;;;;;9.00;7.28;;;19.20;99.90;;;;;;4985731;28;20702;-91
2021/05/29 10:19:22;;;;;;;10.30;7.97;;;19.20;99.90;;;;;;4981057;28;20269;-90
2021/05/29 10:21:49;;;;;;;9.95;7.10;;;19.50;99.90;;;;;;4981540;28;20199;-91
2021/05/29 10:24:16;;;;;;;9.45;7.40;;;19.70;99.90;;;;;;4981818;28;20222;-89
2021/05/29 10:26:44;;;;;;;9.32;6.18;;;19.70;99.90;;;;;;4986572;28;20206;-91
2021/05/29 10:29:11;;;;;;;10.57;8.45;;;19.50;99.90;;;;;;4991264;28;20652;-91
2021/05/29 10:31:42;;;;;;;7.35;6.22;;;19.30;99.90;;;;;;4989593;28;20225;-89
2021/05/29 10:34:09;;;;;;;8.65;6.93;;;18.90;99.90;;;;;;4988661;28;20203;-91
2021/05/29 10:36:39;;;;;;;9.40;7.47;;;18.80;99.90;;;;;;4989114;28;20197;-90
2021/05/29 10:39:08;;;;;;;7.55;6.38;;;19.10;99.90;;;;;;4984898;28;20249;-92
2021/05/29 10:41:59;;;;;;;7.45;6.57;;;19.10;99.90;;;;;;4981997;28;20335;-90
2021/05/29 10:44:32;;;;;;;9.15;6.70;;;19.10;99.90;;;;;;4980274;28;20218;-89
2021/05/29 10:47:08;;;;;;;10.93;8.02;;;19.20;99.90;;;;;;4985840;28;20210;-90
2021/05/29 10:49:59;;;;;;;6.72;5.85;;;19.40;99.90;;;;;;4986043;28;20261;-91
2021/05/29 10:52:51;;;;;;;9.25;7.93;;;19.70;99.90;;;;;;4985522;28;20523;-93
2021/05/29 10:55:27;;;;;;;8.73;5.65;;;19.60;99.90;;;;;;4984645;28;20663;-89
2021/05/29 10:57:59;;;;;;;6.88;5.63;;;19.50;99.90;;;;;;4980000;28;20198;-89
2021/05/29 11:00:59;;;;;;;7.60;6.55;;;19.60;99.90;;;;;;4979255;28;20225;-89
2021/05/29 11:03:28;;;;;;;7.45;6.65;;;19.60;99.90;;;;;;4979660;28;20581;-90
2021/05/29 11:05:56;;;;;;;8.70;6.82;;;19.20;99.90;;;;;;4980952;28;20187;-89
2021/05/29 11:09:02;;;;;;;8.48;6.68;;;19.00;99.90;;;;;;4983332;28;20297;-90
2021/05/29 11:11:52;;;;;;;8.95;6.10;;;19.10;99.90;;;;;;4988849;28;20201;-90
2021/05/29 11:14:21;;;;;;;8.32;6.75;;;19.40;99.90;;;;;;4990053;28;20206;-89
2021/05/29 11:17:13;;;;;;;8.10;5.70;;;19.50;99.90;;;;;;4987329;28;20217;-89
2021/05/29 11:19:41;;;;;;;6.50;5.47;;;19.30;99.90;;;;;;4985773;28;20269;-90
2021/05/29 11:22:10;;;;;;;7.07;5.60;;;19.00;99.90;;;;;;4982567;28;20621;-91
2021/05/29 11:24:39;;;;;;;9.07;6.38;;;19.10;99.90;;;;;;4976990;28;20254;-89
2021/05/29 11:27:08;;;;;;;5.85;4.90;;;19.10;99.90;;;;;;4977063;28;20241;-90
2021/05/29 11:29:49;;;;;;;8.35;7.10;;;19.10;99.90;;;;;;4977235;28;20187;-89
2021/05/29 11:32:16;;;;;;;7.97;6.15;;;19.10;99.90;;;;;;4977026;28;20186;-90
2021/05/29 11:34:44;;;;;;;8.32;6.10;;;19.50;99.90;;;;;;4977410;28;20197;-89
2021/05/29 11:37:14;;;;;;;7.28;6.57;;;20.20;99.90;;;;;;4977816;28;20291;-90
2021/05/29 11:39:51;;;;;;;8.20;6.30;;;21.20;99.90;;;;;;4978824;28;20223;-89
2021/05/29 11:42:18;;;;;;;10.38;7.13;;;22.00;99.90;;;;;;4980609;28;20198;-90
2021/05/29 11:44:45;;;;;;;8.70;5.50;;;22.10;99.90;;;;;;4981188;28;20198;-90
2021/05/29 11:47:16;;;;;;;7.85;5.25;;;21.60;99.90;;;;;;4989471;28;20458;-92
2021/05/29 11:49:42;;;;;;;6.47;5.55;;;21.20;99.90;;;;;;4993829;28;20206;-90
2021/05/29 11:52:09;;;;;;;5.43;4.85;;;21.00;99.90;;;;;;4992740;28;20195;-90
2021/05/29 11:54:36;;;;;;;6.10;4.80;;;22.00;99.90;;;;;;4988997;28;20206;-90
2021/05/29 11:57:05;;;;;;;4.57;3.92;;;22.90;99.90;;;;;;4979165;28;20233;-89
2021/05/29 11:59:32;;;;;;;8.18;5.05;;;22.90;99.90;;;;;;4979325;28;20210;-89
2021/05/29 12:01:59;;;;;;;6.80;4.95;;;22.30;99.90;;;;;;4978840;28;20225;-90
2021/05/29 12:04:27;;;;;;;6.25;4.82;;;22.40;99.90;;;;;;4978569;28;20720;-91
2021/05/29 12:06:55;;;;;;;5.90;4.50;;;22.90;99.90;;;;;;4978319;28;20250;-89
2021/05/29 12:09:25;;;;;;;5.60;3.92;;;22.60;99.90;;;;;;4977720;28;20643;-89
2021/05/29 12:11:53;;;;;;;6.15;5.13;;;22.90;99.90;;;;;;4977953;28;20256;-88
2021/05/29 12:14:23;;;;;;;9.38;4.70;;;22.80;99.90;;;;;;4977953;28;20195;-88
2021/05/29 12:16:55;;;;;;;7.47;5.50;;;23.30;99.90;;;;;;4978330;28;20203;-89
2021/05/29 12:19:34;;;;;;;6.68;4.80;;;23.70;99.90;;;;;;4977502;28;20683;-89
2021/05/29 12:22:03;;;;;;;5.82;4.75;;;23.90;99.90;;;;;;4977451;28;20222;-90
2021/05/29 12:24:40;;;;;;;7.50;3.90;;;24.00;99.90;;;;;;4980251;28;20224;-87
2021/05/29 12:27:07;;;;;;;5.97;4.10;;;24.60;99.90;;;;;;4980593;28;20446;-90
2021/05/29 12:29:34;;;;;;;6.80;4.90;;;25.90;99.90;;;;;;4976781;28;20846;-91
2021/05/29 12:32:02;;;;;;;6.60;5.80;;;25.70;99.90;;;;;;4977031;28;20465;-89
2021/05/29 12:34:30;;;;;;;10.33;5.10;;;24.60;99.90;;;;;;4975943;28;20450;-88
2021/05/29 12:37:08;;;;;;;6.90;4.60;;;24.70;99.90;;;;;;4975832;28;20454;-89
2021/05/29 12:39:53;;;;;;;7.60;5.27;;;25.20;99.90;;;;;;4975795;28;20513;-89
2021/05/29 12:42:26;;;;;;;6.23;4.50;;;25.20;99.90;;;;;;4975637;28;20946;-89
2021/05/29 12:44:54;;;;;;;7.30;4.73;;;25.30;99.90;;;;;;4975692;28;20442;-89
2021/05/29 12:47:23;;;;;;;5.70;4.80;;;25.70;99.90;;;;;;4975442;28;20442;-89
2021/05/29 12:49:51;;;;;;;7.90;5.27;;;27.00;99.90;;;;;;4977201;28;20442;-88
2021/05/29 12:52:26;;;;;;;8.03;4.80;;;26.90;99.90;;;;;;4977067;28;20438;-88
2021/05/29 12:54:53;;;;;;;8.30;5.60;;;25.90;99.90;;;;;;4976891;28;20438;-87
2021/05/29 12:57:20;;;;;;;9.13;6.07;;;25.20;99.90;;;;;;4976266;28;20500;-88
2021/05/29 12:59:46;;;;;;;8.68;7.25;;;24.40;99.90;;;;;;4976984;28;20901;-90